createdAt,value
2023-04-01T00:01:18.430Z,99109.56
2023-04-01T00:03:45.438Z,99101.91
2023-04-01T00:06:13.391Z,99106.16
2023-04-01T00:08:39.705Z,99112.09
2023-04-01T00:11:06.019Z,99107.84
2023-04-01T00:13:32.376Z,99111.25
2023-04-01T00:16:00.143Z,99107.84
2023-04-01T00:18:26.875Z,99112.09
2023-04-01T00:20:53.785Z,99109.53
2023-04-01T00:23:20.245Z,99108.66
2023-04-01T00:25:46.895Z,99103.53
2023-04-01T00:28:13.558Z,99100.97
2023-04-01T00:30:39.864Z,99106.13
2023-04-01T00:33:06.246Z,99102.69
2023-04-01T00:35:32.812Z,99100.16
2023-04-01T00:37:59.836Z,99098.47
2023-04-01T00:40:33.425Z,99098.47
2023-04-01T00:43:00.663Z,99098.47
2023-04-01T00:45:30.322Z,99100.16
2023-04-01T00:47:59.958Z,99099.31
2023-04-01T00:50:27.811Z,99100.16
2023-04-01T00:52:54.540Z,99103.53
2023-04-01T00:55:23.995Z,99103.56
2023-04-01T00:57:54.456Z,99100.16
2023-04-01T01:00:20.833Z,99100.16
2023-04-01T01:02:48.783Z,99106.94
2023-04-01T01:05:16.904Z,99101.03
2023-04-01T01:07:50.297Z,99104.47
2023-04-01T01:10:35.669Z,99104.47
2023-04-01T01:13:59.370Z,99100.28
2023-04-01T01:16:29.320Z,99100.28
2023-04-01T01:19:17.252Z,99102.00
2023-04-01T01:21:52.361Z,99102.00
2023-04-01T01:24:30.232Z,99102.88
2023-04-01T01:27:10.006Z,99109.66
2023-04-01T01:29:42.916Z,99105.41
2023-04-01T01:32:17.692Z,99105.41
2023-04-01T01:35:22.131Z,99109.69
2023-04-01T01:37:52.871Z,99110.56
2023-04-01T01:40:20.523Z,99105.44
2023-04-01T01:42:52.741Z,99104.66
2023-04-01T01:45:22.413Z,99109.69
2023-04-01T01:47:50.808Z,99114.81
2023-04-01T01:50:18.196Z,99113.09
2023-04-01T01:52:44.498Z,99113.16
2023-04-01T01:55:27.529Z,99108.88
2023-04-01T01:57:55.343Z,99119.06
2023-04-01T02:00:22.400Z,99122.47
2023-04-01T02:02:50.430Z,99124.16
2023-04-01T02:05:24.204Z,99120.84
2023-04-01T02:08:02.126Z,99121.66
2023-04-01T02:10:31.997Z,99125.97
2023-04-01T02:13:03.451Z,99119.16
2023-04-01T02:15:34.817Z,99128.56
2023-04-01T02:18:02.165Z,99126.84
2023-04-01T02:20:30.516Z,99124.31
2023-04-01T02:22:59.010Z,99130.25
2023-04-01T02:25:29.483Z,99126.00
2023-04-01T02:27:58.974Z,99126.84
2023-04-01T02:30:28.477Z,99127.63
2023-04-01T02:32:57.700Z,99125.97
2023-04-01T02:35:25.614Z,99121.66
2023-04-01T02:37:54.179Z,99130.13
2023-04-01T02:40:20.912Z,99126.72
2023-04-01T02:42:47.304Z,99135.22
2023-04-01T02:45:14.805Z,99136.06
2023-04-01T02:47:41.439Z,99130.97
2023-04-01T02:50:08.935Z,99139.47
2023-04-01T02:52:35.379Z,99139.50
2023-04-01T02:55:01.799Z,99142.84
2023-04-01T02:57:28.189Z,99144.59
2023-04-01T02:59:54.591Z,99144.56
2023-04-01T03:02:20.965Z,99148.00
2023-04-01T03:04:47.383Z,99145.47
2023-04-01T03:07:14.037Z,99152.25
2023-04-01T03:09:40.409Z,99146.28
2023-04-01T03:12:07.360Z,99143.72
2023-04-01T03:14:33.665Z,99148.81
2023-04-01T03:17:00.064Z,99141.16
2023-04-01T03:19:26.504Z,99150.53
2023-04-01T03:21:52.909Z,99143.69
2023-04-01T03:24:19.261Z,99146.25
2023-04-01T03:26:45.535Z,99147.94
2023-04-01T03:29:11.863Z,99147.09
2023-04-01T03:31:38.177Z,99154.75
2023-04-01T03:34:04.481Z,99153.88
2023-04-01T03:36:30.825Z,99150.44
2023-04-01T03:38:57.143Z,99152.13
2023-04-01T03:41:23.503Z,99162.31
2023-04-01T03:43:49.803Z,99169.13
2023-04-01T03:46:20.334Z,99168.25
2023-04-01T03:48:47.552Z,99171.69
2023-04-01T03:51:14.164Z,99169.13
2023-04-01T03:53:40.497Z,99166.59
2023-04-01T03:56:08.379Z,99175.97
2023-04-01T03:58:35.815Z,99180.22
2023-04-01T04:01:02.191Z,99179.41
2023-04-01T04:03:28.623Z,99187.03
2023-04-01T04:05:55.007Z,99187.84
2023-04-01T04:08:21.354Z,99178.50
2023-04-01T04:10:47.660Z,99186.16
2023-04-01T04:13:13.986Z,99183.59
2023-04-01T04:15:40.347Z,99190.41
2023-04-01T04:18:06.787Z,99185.28
2023-04-01T04:20:33.092Z,99191.25
2023-04-01T04:23:01.405Z,99192.09
2023-04-01T04:25:27.730Z,99186.19
2023-04-01T04:27:54.023Z,99194.66
2023-04-01T04:30:20.392Z,99198.94
2023-04-01T04:32:46.705Z,99199.78
2023-04-01T04:35:13.141Z,99197.19
2023-04-01T04:37:39.451Z,99206.56
2023-04-01T04:40:06.438Z,99210.81
2023-04-01T04:42:32.780Z,99206.56
2023-04-01T04:44:59.133Z,99205.72
2023-04-01T04:47:25.417Z,99208.25
2023-04-01T04:49:51.785Z,99202.31
2023-04-01T04:52:18.066Z,99204.00
2023-04-01T04:54:44.408Z,99211.69
2023-04-01T04:57:10.720Z,99213.38
2023-04-01T04:59:37.045Z,99208.28
2023-04-01T05:02:03.382Z,99205.69
2023-04-01T05:04:29.692Z,99210.78
2023-04-01T05:06:56.011Z,99221.81
2023-04-01T05:09:22.352Z,99220.13
2023-04-01T05:11:48.765Z,99223.53
2023-04-01T05:14:16.415Z,99218.44
2023-04-01T05:16:42.830Z,99222.69
2023-04-01T05:19:09.222Z,99221.84
2023-04-01T05:21:35.625Z,99226.91
2023-04-01T05:24:01.931Z,99227.78
2023-04-01T05:26:28.236Z,99226.03
2023-04-01T05:28:54.571Z,99228.56
2023-04-01T05:31:21.107Z,99227.72
2023-04-01T05:33:47.541Z,99231.09
2023-04-01T05:36:16.754Z,99230.22
2023-04-01T05:38:43.429Z,99233.59
2023-04-01T05:41:09.844Z,99236.97
2023-04-01T05:43:40.258Z,99233.59
2023-04-01T05:46:06.879Z,99238.69
2023-04-01T05:48:34.888Z,99241.28
2023-04-01T05:51:01.820Z,99243.78
2023-04-01T05:53:28.124Z,99248.91
2023-04-01T05:55:54.429Z,99249.75
2023-04-01T05:58:20.743Z,99253.09
2023-04-01T06:00:47.904Z,99247.97
2023-04-01T06:03:14.546Z,99250.53
2023-04-01T06:05:44.132Z,99252.25
2023-04-01T06:08:20.576Z,99254.84
2023-04-01T06:10:50.120Z,99260.72
2023-04-01T06:13:25.607Z,99267.53
2023-04-01T06:16:06.467Z,99263.28
2023-04-01T06:18:51.118Z,99264.13
2023-04-01T06:21:38.040Z,99270.03
2023-04-01T06:24:43.917Z,99279.44
2023-04-01T06:27:28.735Z,99279.41
2023-04-01T06:30:25.445Z,99281.09
2023-04-01T06:32:54.866Z,99282.81
2023-04-01T06:35:35.966Z,99287.84
2023-04-01T06:38:27.323Z,99288.69
2023-04-01T06:41:26.157Z,99286.97
2023-04-01T06:44:01.276Z,99288.66
2023-04-01T06:46:48.018Z,99291.19
2023-04-01T06:49:49.244Z,99295.44
2023-04-01T06:52:24.436Z,99293.75
2023-04-01T06:54:59.539Z,99297.16
2023-04-01T06:57:44.169Z,99295.44
2023-04-01T07:00:33.014Z,99296.25
2023-04-01T07:03:18.796Z,99303.00
2023-04-01T07:05:45.148Z,99296.13
2023-04-01T07:08:16.936Z,99301.19
2023-04-01T07:10:59.242Z,99298.56
2023-04-01T07:13:30.104Z,99301.94
2023-04-01T07:16:36.944Z,99303.63
2023-04-01T07:19:45.254Z,99317.16
2023-04-01T07:22:26.779Z,99310.31
2023-04-01T07:24:54.944Z,99308.72
2023-04-01T07:27:21.328Z,99310.38
2023-04-01T07:29:48.012Z,99313.59
2023-04-01T07:32:20.434Z,99322.19
2023-04-01T07:34:55.257Z,99322.19
2023-04-01T07:37:21.510Z,99322.31
2023-04-01T07:40:12.211Z,99325.66
2023-04-01T07:43:43.367Z,99325.75
2023-04-01T07:46:24.816Z,99327.44
2023-04-01T07:49:04.776Z,99329.13
2023-04-01T07:51:37.027Z,99328.41
2023-04-01T07:54:18.546Z,99326.91
2023-04-01T07:56:55.562Z,99337.31
2023-04-01T07:59:40.043Z,99334.94
2023-04-01T08:02:48.039Z,99343.50
2023-04-01T08:05:32.891Z,99350.16
2023-04-01T08:08:20.945Z,99346.84
2023-04-01T08:11:14.683Z,99354.47
2023-04-01T08:13:52.673Z,99353.66
2023-04-01T08:16:29.721Z,99361.19
2023-04-01T08:18:55.987Z,99358.00
2023-04-01T08:21:29.909Z,99360.59
2023-04-01T08:24:01.110Z,99364.78
2023-04-01T08:26:38.689Z,99364.88
2023-04-01T08:29:07.515Z,99368.28
2023-04-01T08:31:46.646Z,99367.47
2023-04-01T08:34:22.505Z,99375.94
2023-04-01T08:37:00.697Z,99379.38
2023-04-01T08:39:40.153Z,99374.25
2023-04-01T08:42:43.823Z,99375.91
2023-04-01T08:45:45.609Z,99386.94
2023-04-01T08:48:45.766Z,99387.03
2023-04-01T08:52:01.627Z,99392.88
2023-04-01T08:55:05.505Z,99394.69
2023-04-01T08:57:51.732Z,99392.19
2023-04-01T09:00:41.202Z,99400.78
2023-04-01T09:03:21.002Z,99405.78
2023-04-01T09:05:57.497Z,99391.41
2023-04-01T09:08:32.343Z,99394.88
2023-04-01T09:11:30.515Z,99403.38
2023-04-01T09:13:56.780Z,99409.31
2023-04-01T09:16:40.744Z,99406.75
2023-04-01T09:19:17.842Z,99411.00
2023-04-01T09:22:21.102Z,99416.97
2023-04-01T09:25:16.195Z,99422.16
2023-04-01T09:28:03.829Z,99426.41
2023-04-01T09:31:17.896Z,99426.38
2023-04-01T09:34:11.893Z,99423.81
2023-04-01T09:36:41.199Z,99431.47
2023-04-01T09:39:35.582Z,99431.34
2023-04-01T09:42:01.850Z,99432.19
2023-04-01T09:44:37.752Z,99438.22
2023-04-01T09:47:27.217Z,99431.25
2023-04-01T09:50:27.329Z,99444.06
2023-04-01T09:53:25.832Z,99445.88
2023-04-01T09:56:34.392Z,99445.03
2023-04-01T09:59:00.707Z,99456.13
2023-04-01T10:01:48.687Z,99451.78
2023-04-01T10:04:42.688Z,99461.09
2023-04-01T10:07:30.794Z,99464.44
2023-04-01T10:10:19.020Z,99461.91
2023-04-01T10:12:51.376Z,99465.38
2023-04-01T10:15:20.676Z,99469.75
2023-04-01T10:18:05.291Z,99468.88
2023-04-01T10:20:54.783Z,99476.47
2023-04-01T10:23:42.515Z,99481.66
2023-04-01T10:26:08.747Z,99475.81
2023-04-01T10:29:02.819Z,99479.22
2023-04-01T10:32:10.476Z,99482.63
2023-04-01T10:34:57.008Z,99480.94
2023-04-01T10:37:54.217Z,99484.31
2023-04-01T10:40:47.588Z,99482.72
2023-04-01T10:43:35.506Z,99479.25
2023-04-01T10:46:04.499Z,99484.25
2023-04-01T10:49:09.280Z,99493.72
2023-04-01T10:51:44.811Z,99493.78
2023-04-01T10:54:38.703Z,99497.97
2023-04-01T10:57:30.068Z,99497.16
2023-04-01T11:00:05.302Z,99502.25
2023-04-01T11:03:07.127Z,99501.47
2023-04-01T11:05:39.419Z,99494.66
2023-04-01T11:08:29.904Z,99502.38
2023-04-01T11:11:33.866Z,99502.38
2023-04-01T11:14:21.886Z,99505.78
2023-04-01T11:17:23.510Z,99500.69
2023-04-01T11:20:19.646Z,99507.50
2023-04-01T11:23:04.788Z,99515.13
2023-04-01T11:25:52.874Z,99513.47
2023-04-01T11:28:28.288Z,99516.88
2023-04-01T11:30:57.638Z,99517.69
2023-04-01T11:33:34.212Z,99527.06
2023-04-01T11:36:10.329Z,99531.38
2023-04-01T11:38:59.836Z,99527.13
2023-04-01T11:41:46.780Z,99538.13
2023-04-01T11:44:22.158Z,99533.00
2023-04-01T11:47:15.020Z,99538.03
2023-04-01T11:50:21.596Z,99545.78
2023-04-01T11:53:30.989Z,99550.06
2023-04-01T11:56:15.621Z,99550.13
2023-04-01T11:59:12.485Z,99558.66
2023-04-01T12:01:57.108Z,99562.03
2023-04-01T12:04:45.174Z,99562.13
2023-04-01T12:07:22.725Z,99574.97
2023-04-01T12:10:26.641Z,99563.91
2023-04-01T12:13:08.220Z,99574.91
2023-04-01T12:16:02.006Z,99573.31
2023-04-01T12:18:47.289Z,99574.97
2023-04-01T12:21:49.224Z,99583.47
2023-04-01T12:24:41.614Z,99587.66
2023-04-01T12:27:07.859Z,99587.59
2023-04-01T12:29:37.199Z,99585.16
2023-04-01T12:32:31.037Z,99589.41
2023-04-01T12:35:18.585Z,99597.84
2023-04-01T12:38:08.734Z,99596.16
2023-04-01T12:40:40.700Z,99599.63
2023-04-01T12:43:35.034Z,99600.41
2023-04-01T12:46:26.206Z,99614.06
2023-04-01T12:49:02.077Z,99612.38
2023-04-01T12:51:55.631Z,99618.31
2023-04-01T12:54:37.482Z,99618.31
2023-04-01T12:57:28.763Z,99625.13
2023-04-01T13:00:01.263Z,99627.75
2023-04-01T13:02:42.184Z,99633.69
2023-04-01T13:05:33.607Z,99629.50
2023-04-01T13:08:26.552Z,99639.72
2023-04-01T13:11:07.712Z,99643.97
2023-04-01T13:13:59.778Z,99636.38
2023-04-01T13:16:38.000Z,99651.72
2023-04-01T13:19:11.501Z,99655.13
2023-04-01T13:22:02.476Z,99657.69
2023-04-01T13:24:37.947Z,99663.69
2023-04-01T13:27:22.493Z,99661.13
2023-04-01T13:30:08.562Z,99667.09
2023-04-01T13:33:02.879Z,99661.09
2023-04-01T13:35:50.681Z,99676.44
2023-04-01T13:38:23.133Z,99667.13
2023-04-01T13:41:03.901Z,99677.31
2023-04-01T13:43:35.631Z,99676.47
2023-04-01T13:46:01.889Z,99679.03
2023-04-01T13:48:51.463Z,99684.09
2023-04-01T13:51:20.698Z,99679.88
2023-04-01T13:54:05.160Z,99686.69
2023-04-01T13:56:40.520Z,99684.13
2023-04-01T13:59:47.002Z,99695.16
2023-04-01T14:02:34.499Z,99700.28
2023-04-01T14:05:42.151Z,99698.56
2023-04-01T14:08:40.377Z,99702.84
2023-04-01T14:11:46.243Z,99703.66
2023-04-01T14:14:18.403Z,99699.38
2023-04-01T14:17:18.874Z,99704.50
2023-04-01T14:20:05.430Z,99713.88
2023-04-01T14:22:49.924Z,99714.72
2023-04-01T14:25:37.164Z,99728.31
2023-04-01T14:28:38.693Z,99734.25
2023-04-01T14:31:20.322Z,99733.41
2023-04-01T14:33:53.938Z,99733.38
2023-04-01T14:36:48.021Z,99738.50
2023-04-01T14:39:30.907Z,99736.78
2023-04-01T14:42:33.616Z,99745.28
2023-04-01T14:45:40.596Z,99744.44
2023-04-01T14:48:43.743Z,99754.63
2023-04-01T14:51:30.946Z,99757.16
2023-04-01T14:54:09.970Z,99765.66
2023-04-01T14:56:45.409Z,99763.97
2023-04-01T14:59:28.558Z,99768.19
2023-04-01T15:02:18.438Z,99773.28
2023-04-01T15:04:55.295Z,99778.38
2023-04-01T15:07:52.830Z,99777.50
2023-04-01T15:10:54.214Z,99777.50
2023-04-01T15:13:29.629Z,99782.59
2023-04-01T15:15:55.942Z,99782.59
2023-04-01T15:18:38.194Z,99795.34
2023-04-01T15:21:41.349Z,99791.06
2023-04-01T15:24:17.917Z,99797.00
2023-04-01T15:26:53.236Z,99804.63
2023-04-01T15:29:41.200Z,99806.31
2023-04-01T15:32:38.356Z,99802.09
2023-04-01T15:35:18.699Z,99812.25
2023-04-01T15:37:58.131Z,99811.41
2023-04-01T15:40:43.163Z,99813.94
2023-04-01T15:43:33.467Z,99819.00
2023-04-01T15:46:26.663Z,99824.94
2023-04-01T15:49:11.738Z,99826.63
2023-04-01T15:51:44.134Z,99836.78
2023-04-01T15:54:33.851Z,99835.13
2023-04-01T15:57:15.675Z,99845.28
2023-04-01T16:00:01.550Z,99842.69
2023-04-01T16:02:43.033Z,99845.22
2023-04-01T16:05:12.132Z,99847.75
2023-04-01T16:07:44.901Z,99851.13
2023-04-01T16:10:33.160Z,99859.59
2023-04-01T16:13:19.488Z,99861.31
2023-04-01T16:15:57.125Z,99866.38
2023-04-01T16:18:40.205Z,99869.75
2023-04-01T16:21:41.618Z,99874.84
2023-04-01T16:24:25.176Z,99879.97
2023-04-01T16:26:57.187Z,99888.38
2023-04-01T16:29:56.678Z,99889.16
2023-04-01T16:32:28.597Z,99895.06
2023-04-01T16:35:12.982Z,99904.38
2023-04-01T16:37:54.864Z,99903.47
2023-04-01T16:40:21.132Z,99916.13
2023-04-01T16:42:52.408Z,99916.06
2023-04-01T16:45:41.192Z,99922.00
2023-04-01T16:48:10.242Z,99927.06
2023-04-01T16:51:00.811Z,99931.28
2023-04-01T16:53:46.586Z,99932.06
2023-04-01T16:56:28.429Z,99941.38
2023-04-01T16:59:14.778Z,99939.63
2023-04-01T17:02:06.968Z,99951.47
2023-04-01T17:04:58.616Z,99958.19
2023-04-01T17:07:31.167Z,99958.19
2023-04-01T17:10:25.569Z,99964.06
2023-04-01T17:13:25.250Z,99965.75
2023-04-01T17:16:01.561Z,99980.03
2023-04-01T17:18:55.976Z,99980.88
2023-04-01T17:21:34.180Z,99986.78
2023-04-01T17:24:26.886Z,99990.09
2023-04-01T17:27:07.269Z,99994.28
2023-04-01T17:30:11.119Z,100002.72
2023-04-01T17:32:55.605Z,100009.50
2023-04-01T17:35:30.950Z,100016.31
2023-04-01T17:38:18.439Z,100016.25
2023-04-01T17:41:02.728Z,100016.22
2023-04-01T17:43:48.816Z,100029.72
2023-04-01T17:46:50.751Z,100033.09
2023-04-01T17:49:58.186Z,100036.44
2023-04-01T17:52:47.621Z,100044.00
2023-04-01T17:55:41.888Z,100046.59
2023-04-01T17:58:22.697Z,100052.44
2023-04-01T18:01:20.572Z,100062.47
2023-04-01T18:04:01.176Z,100063.22
2023-04-01T18:06:34.266Z,100068.28
2023-04-01T18:09:28.444Z,100065.69
2023-04-01T18:12:08.899Z,100073.34
2023-04-01T18:15:05.581Z,100076.69
2023-04-01T18:17:40.130Z,100082.59
2023-04-01T18:20:32.967Z,100098.66
2023-04-01T18:23:04.161Z,100090.13
2023-04-01T18:25:45.293Z,100098.63
2023-04-01T18:28:36.248Z,100099.38
2023-04-01T18:31:02.510Z,100111.22
2023-04-01T18:33:44.087Z,100099.34
2023-04-01T18:36:19.384Z,100113.72
2023-04-01T18:39:16.710Z,100119.66
2023-04-01T18:42:15.590Z,100127.19
2023-04-01T18:44:52.416Z,100130.56
2023-04-01T18:47:37.602Z,100135.53
2023-04-01T18:50:28.664Z,100141.47
2023-04-01T18:53:09.413Z,100154.09
2023-04-01T18:56:04.244Z,100152.31
2023-04-01T18:58:50.948Z,100160.72
2023-04-01T19:01:20.792Z,100164.00
2023-04-01T19:03:56.299Z,100160.56
2023-04-01T19:06:30.097Z,100172.47
2023-04-01T19:09:13.138Z,100181.69
2023-04-01T19:12:08.987Z,100185.03
2023-04-01T19:14:56.960Z,100182.47
2023-04-01T19:17:42.089Z,100187.53
2023-04-01T19:20:22.350Z,100193.38
2023-04-01T19:23:07.150Z,100199.38
2023-04-01T19:25:51.365Z,100190.78
2023-04-01T19:28:27.609Z,100200.97
2023-04-01T19:31:19.411Z,100205.94
2023-04-01T19:34:13.599Z,100206.75
2023-04-01T19:36:51.492Z,100212.56
2023-04-01T19:39:55.522Z,100210.75
2023-04-01T19:42:43.444Z,100229.41
2023-04-01T19:45:15.977Z,100230.97
2023-04-01T19:47:54.423Z,100238.66
2023-04-01T19:50:37.361Z,100247.75
2023-04-01T19:53:18.628Z,100245.13
2023-04-01T19:56:06.244Z,100253.56
2023-04-01T19:58:46.139Z,100249.34
2023-04-01T20:01:44.344Z,100269.56
2023-04-01T20:04:17.726Z,100263.56
2023-04-01T20:06:59.905Z,100282.16
2023-04-01T20:09:32.053Z,100280.41
2023-04-01T20:12:42.453Z,100286.31
2023-04-01T20:15:42.474Z,100291.13
2023-04-01T20:18:23.883Z,100301.25
2023-04-01T20:21:01.316Z,100304.66
2023-04-01T20:23:45.927Z,100307.00
2023-04-01T20:26:13.820Z,100306.94
2023-04-01T20:28:44.406Z,100317.94
2023-04-01T20:31:26.374Z,100328.91
2023-04-01T20:33:59.159Z,100322.94
2023-04-01T20:36:53.603Z,100333.91
2023-04-01T20:39:48.059Z,100340.56
2023-04-01T20:42:56.849Z,100338.06
2023-04-01T20:45:34.804Z,100343.13
2023-04-01T20:48:01.342Z,100342.06
2023-04-01T20:50:46.152Z,100347.13
2023-04-01T20:53:17.388Z,100353.09
2023-04-01T20:56:02.439Z,100361.28
2023-04-01T20:58:47.200Z,100364.72
2023-04-01T21:01:42.591Z,100363.00
2023-04-01T21:04:31.562Z,100368.06
2023-04-01T21:06:57.811Z,100373.03
2023-04-01T21:09:33.093Z,100378.06
2023-04-01T21:12:29.523Z,100383.03
2023-04-01T21:15:10.700Z,100388.78
2023-04-01T21:18:00.360Z,100388.69
2023-04-01T21:20:42.006Z,100396.19
2023-04-01T21:23:30.171Z,100397.84
2023-04-01T21:26:08.734Z,100409.66
2023-04-01T21:28:56.907Z,100409.44
2023-04-01T21:31:26.325Z,100409.53
2023-04-01T21:34:37.207Z,100420.50
2023-04-01T21:37:09.252Z,100422.19
2023-04-01T21:40:12.154Z,100429.69
2023-04-01T21:43:02.674Z,100428.72
2023-04-01T21:45:37.837Z,100437.13
2023-04-01T21:48:32.800Z,100437.13
2023-04-01T21:51:29.340Z,100440.56
2023-04-01T21:54:17.211Z,100440.50
2023-04-01T21:57:12.829Z,100452.09
2023-04-01T22:00:14.936Z,100454.59
2023-04-01T22:03:04.251Z,100460.56
2023-04-01T22:05:44.278Z,100458.94
2023-04-01T22:08:34.922Z,100468.91
2023-04-01T22:11:17.488Z,100466.47
2023-04-01T22:13:51.008Z,100476.47
2023-04-01T22:16:28.115Z,100479.03
2023-04-01T22:19:03.143Z,100482.38
2023-04-01T22:21:38.497Z,100492.53
2023-04-01T22:24:16.746Z,100487.47
2023-04-01T22:27:01.309Z,100490.00
2023-04-01T22:29:38.184Z,100494.13
2023-04-01T22:32:16.368Z,100496.78
2023-04-01T22:34:50.521Z,100489.16
2023-04-01T22:37:22.992Z,100499.22
2023-04-01T22:40:21.344Z,100502.53
2023-04-01T22:42:54.343Z,100503.31
2023-04-01T22:45:39.640Z,100512.63
2023-04-01T22:48:28.810Z,100518.56
2023-04-01T22:51:04.438Z,100520.97
2023-04-01T22:53:48.873Z,100512.56
2023-04-01T22:56:24.327Z,100526.91
2023-04-01T22:58:58.506Z,100531.91
2023-04-01T23:01:30.336Z,100527.59
2023-04-01T23:03:58.932Z,100534.38
2023-04-01T23:06:42.183Z,100541.13
2023-04-01T23:09:13.596Z,100533.44
2023-04-01T23:12:00.052Z,100546.06
2023-04-01T23:14:35.832Z,100545.16
2023-04-01T23:17:05.407Z,100551.03
2023-04-01T23:19:53.338Z,100555.34
2023-04-01T23:22:29.948Z,100560.31
2023-04-01T23:25:16.637Z,100564.53
2023-04-01T23:27:46.009Z,100557.78
2023-04-01T23:30:47.441Z,100569.38
2023-04-01T23:33:19.852Z,100579.50
2023-04-01T23:36:15.497Z,100577.78
2023-04-01T23:38:47.913Z,100586.28
2023-04-01T23:41:24.749Z,100583.63
2023-04-01T23:44:00.386Z,100590.41
2023-04-01T23:46:27.796Z,100590.28
2023-04-01T23:48:54.536Z,100599.63
2023-04-01T23:51:27.512Z,100603.06
2023-04-01T23:54:04.902Z,100600.47
2023-04-01T23:56:49.349Z,100613.25
2023-04-01T23:59:24.403Z,100615.59
